createdAt,value
2024-01-16T00:01:19.278Z,80.46
2024-01-16T00:03:45.784Z,81.21
2024-01-16T00:06:12.228Z,81.39
2024-01-16T00:08:38.784Z,80.60
2024-01-16T00:11:05.273Z,80.80
2024-01-16T00:13:34.252Z,82.11
2024-01-16T00:16:03.683Z,80.86
2024-01-16T00:18:30.772Z,79.07
2024-01-16T00:20:57.235Z,81.11
2024-01-16T00:23:23.670Z,79.72
2024-01-16T00:25:50.070Z,81.06
2024-01-16T00:28:16.472Z,80.15
2024-01-16T00:30:43.128Z,80.08
2024-01-16T00:33:10.782Z,80.09
2024-01-16T00:35:37.189Z,78.43
2024-01-16T00:38:03.667Z,81.38
2024-01-16T00:40:30.046Z,81.67
2024-01-16T00:42:56.424Z,82.09
2024-01-16T00:45:23.286Z,82.29
2024-01-16T00:47:49.849Z,80.81
2024-01-16T00:50:16.448Z,80.93
2024-01-16T00:52:42.842Z,82.79
2024-01-16T00:55:09.622Z,82.51
2024-01-16T00:57:35.996Z,82.38
2024-01-16T01:00:02.461Z,83.41
2024-01-16T01:02:28.970Z,82.03
2024-01-16T01:04:55.405Z,82.00
2024-01-16T01:07:21.775Z,81.73
2024-01-16T01:09:48.193Z,82.44
2024-01-16T01:12:14.635Z,80.99
2024-01-16T01:14:41.204Z,82.09
2024-01-16T01:17:07.677Z,81.02
2024-01-16T01:19:34.112Z,80.93
2024-01-16T01:22:00.518Z,80.78
2024-01-16T01:24:26.914Z,80.24
2024-01-16T01:26:53.438Z,80.56
2024-01-16T01:29:19.987Z,80.32
2024-01-16T01:31:48.881Z,80.14
2024-01-16T01:34:16.311Z,81.29
2024-01-16T01:36:44.194Z,80.78
2024-01-16T01:39:11.961Z,80.17
2024-01-16T01:41:38.839Z,79.87
2024-01-16T01:44:05.612Z,79.34
2024-01-16T01:46:35.281Z,79.70
2024-01-16T01:49:01.937Z,80.14
2024-01-16T01:51:28.652Z,77.97
2024-01-16T01:53:55.262Z,80.23
2024-01-16T01:56:22.691Z,79.21
2024-01-16T01:58:53.062Z,78.44
2024-01-16T02:01:21.402Z,77.46
2024-01-16T02:03:50.649Z,78.29
2024-01-16T02:06:17.560Z,76.92
2024-01-16T02:08:45.582Z,78.80
2024-01-16T02:11:12.059Z,77.85
2024-01-16T02:13:38.708Z,77.84
2024-01-16T02:16:06.809Z,78.36
2024-01-16T02:18:33.327Z,81.29
2024-01-16T02:21:02.556Z,84.11
2024-01-16T02:23:29.258Z,85.63
2024-01-16T02:25:55.926Z,87.41
2024-01-16T02:28:22.373Z,88.83
2024-01-16T02:30:48.920Z,91.11
2024-01-16T02:33:15.735Z,91.22
2024-01-16T02:35:42.323Z,90.79
2024-01-16T02:38:08.788Z,90.15
2024-01-16T02:40:35.240Z,90.69
2024-01-16T02:43:01.603Z,90.94
2024-01-16T02:45:27.980Z,91.11
2024-01-16T02:47:54.446Z,89.15
2024-01-16T02:50:21.397Z,88.99
2024-01-16T02:52:47.860Z,89.15
2024-01-16T02:55:14.327Z,88.47
2024-01-16T02:57:40.744Z,89.08
2024-01-16T03:00:08.837Z,88.30
2024-01-16T03:02:35.485Z,88.12
2024-01-16T03:05:04.999Z,86.10
2024-01-16T03:07:31.686Z,86.02
2024-01-16T03:09:58.070Z,86.58
2024-01-16T03:12:24.503Z,87.47
2024-01-16T03:14:50.892Z,87.67
2024-01-16T03:17:17.335Z,85.65
2024-01-16T03:19:44.869Z,84.10
2024-01-16T03:22:11.486Z,85.78
2024-01-16T03:24:37.920Z,84.90
2024-01-16T03:27:05.139Z,85.13
2024-01-16T03:29:31.611Z,85.84
2024-01-16T03:31:58.034Z,85.68
2024-01-16T03:34:24.914Z,86.36
2024-01-16T03:36:51.353Z,83.32
2024-01-16T03:39:18.139Z,83.61
2024-01-16T03:41:44.626Z,84.62
2024-01-16T03:44:11.102Z,83.93
2024-01-16T03:46:37.573Z,83.12
2024-01-16T03:49:04.036Z,83.41
2024-01-16T03:51:30.407Z,80.87
2024-01-16T03:53:56.819Z,81.55
2024-01-16T03:56:23.559Z,81.86
2024-01-16T03:58:49.932Z,81.68
2024-01-16T04:01:16.454Z,82.93
2024-01-16T04:03:42.875Z,84.18
2024-01-16T04:06:17.565Z,83.71
2024-01-16T04:08:44.038Z,85.26
2024-01-16T04:11:14.615Z,85.39
2024-01-16T04:13:41.890Z,85.43
2024-01-16T04:16:08.250Z,87.47
2024-01-16T04:18:38.885Z,89.57
2024-01-16T04:21:05.484Z,88.24
2024-01-16T04:23:31.882Z,89.73
2024-01-16T04:25:58.312Z,90.31
2024-01-16T04:28:24.802Z,90.48
2024-01-16T04:30:51.879Z,90.41
2024-01-16T04:33:18.429Z,89.45
2024-01-16T04:35:45.215Z,90.53
2024-01-16T04:38:11.671Z,89.44
2024-01-16T04:40:38.085Z,87.79
2024-01-16T04:43:04.495Z,86.73
2024-01-16T04:45:30.871Z,86.53
2024-01-16T04:47:57.404Z,85.55
2024-01-16T04:50:24.535Z,86.49
2024-01-16T04:52:53.013Z,85.90
2024-01-16T04:55:20.770Z,86.16
2024-01-16T04:57:47.147Z,85.83
2024-01-16T05:00:13.758Z,86.09
2024-01-16T05:02:40.404Z,85.29
2024-01-16T05:05:07.235Z,85.59
2024-01-16T05:07:33.685Z,85.92
2024-01-16T05:10:00.106Z,84.85
2024-01-16T05:12:26.549Z,85.07
2024-01-16T05:14:52.919Z,85.41
2024-01-16T05:17:19.356Z,85.67
2024-01-16T05:19:45.804Z,86.57
2024-01-16T05:22:12.321Z,85.43
2024-01-16T05:24:38.702Z,85.71
2024-01-16T05:27:05.793Z,84.75
2024-01-16T05:29:32.342Z,83.94
2024-01-16T05:31:58.960Z,83.95
2024-01-16T05:34:25.355Z,85.81
2024-01-16T05:36:51.789Z,85.80
2024-01-16T05:39:18.271Z,84.99
2024-01-16T05:41:44.750Z,86.44
2024-01-16T05:44:11.133Z,84.05
2024-01-16T05:46:37.490Z,81.29
2024-01-16T05:49:04.810Z,82.59
2024-01-16T05:51:31.250Z,82.35
2024-01-16T05:53:58.225Z,83.03
2024-01-16T05:56:24.777Z,82.43
2024-01-16T05:58:51.204Z,81.57
2024-01-16T06:01:17.584Z,81.42
2024-01-16T06:03:46.408Z,80.44
2024-01-16T06:06:12.855Z,82.04
2024-01-16T06:08:39.339Z,81.06
2024-01-16T06:11:05.871Z,80.77
2024-01-16T06:13:33.943Z,81.97
2024-01-16T06:16:00.357Z,79.19
2024-01-16T06:18:26.990Z,79.39
2024-01-16T06:20:53.484Z,80.26
2024-01-16T06:23:19.919Z,78.82
2024-01-16T06:25:46.768Z,77.94
2024-01-16T06:28:13.284Z,76.12
2024-01-16T06:30:39.830Z,76.33
2024-01-16T06:33:06.401Z,78.79
2024-01-16T06:35:32.925Z,76.93
2024-01-16T06:37:59.411Z,76.95
2024-01-16T06:40:25.790Z,72.87
2024-01-16T06:42:52.169Z,73.30
2024-01-16T06:45:20.180Z,72.40
2024-01-16T06:47:47.729Z,75.08
2024-01-16T06:50:16.307Z,75.18
2024-01-16T06:52:42.642Z,73.12
2024-01-16T06:55:09.948Z,73.61
2024-01-16T06:57:36.319Z,74.38
2024-01-16T07:00:03.006Z,75.54
2024-01-16T07:02:29.560Z,73.99
2024-01-16T07:04:57.643Z,72.32
2024-01-16T07:07:25.750Z,69.83
2024-01-16T07:09:52.152Z,73.06
2024-01-16T07:12:18.521Z,73.41
2024-01-16T07:14:44.930Z,74.94
2024-01-16T07:17:11.369Z,73.56
2024-01-16T07:19:37.752Z,72.79
2024-01-16T07:22:04.567Z,73.61
2024-01-16T07:24:31.090Z,73.60
2024-01-16T07:26:57.492Z,72.82
2024-01-16T07:29:23.923Z,73.06
2024-01-16T07:31:50.296Z,72.14
2024-01-16T07:34:21.142Z,71.91
2024-01-16T07:36:47.710Z,70.31
2024-01-16T07:39:15.158Z,71.26
2024-01-16T07:41:41.546Z,69.91
2024-01-16T07:44:08.832Z,70.78
2024-01-16T07:46:35.196Z,71.33
2024-01-16T07:49:01.698Z,71.23
2024-01-16T07:51:28.991Z,70.29
2024-01-16T07:54:07.812Z,69.75
2024-01-16T07:56:34.929Z,70.82
2024-01-16T07:59:02.212Z,69.12
2024-01-16T08:01:32.288Z,70.57
2024-01-16T08:03:58.708Z,69.89
2024-01-16T08:06:26.084Z,69.63
2024-01-16T08:08:52.527Z,70.65
2024-01-16T08:11:20.156Z,70.93
2024-01-16T08:13:46.595Z,69.52
2024-01-16T08:16:13.004Z,70.93
2024-01-16T08:18:39.831Z,70.21
2024-01-16T08:21:07.016Z,69.71
2024-01-16T08:23:33.394Z,69.41
2024-01-16T08:25:59.803Z,70.42
2024-01-16T08:28:27.035Z,69.03
2024-01-16T08:30:53.707Z,69.12
2024-01-16T08:33:27.843Z,67.57
2024-01-16T08:36:00.568Z,69.08
2024-01-16T08:38:27.024Z,69.39
2024-01-16T08:40:53.610Z,68.34
2024-01-16T08:43:19.972Z,68.49
2024-01-16T08:45:46.393Z,70.60
2024-01-16T08:48:13.961Z,70.23
2024-01-16T08:50:41.644Z,68.59
2024-01-16T08:53:08.044Z,67.33
2024-01-16T08:55:34.732Z,67.90
2024-01-16T08:58:02.070Z,69.03
2024-01-16T09:00:28.445Z,67.86
2024-01-16T09:02:54.972Z,67.72
2024-01-16T09:05:30.088Z,64.82
2024-01-16T09:07:56.558Z,65.41
2024-01-16T09:10:22.917Z,66.54
2024-01-16T09:12:49.884Z,65.74
2024-01-16T09:15:16.584Z,65.83
2024-01-16T09:17:43.095Z,65.49
2024-01-16T09:20:09.979Z,64.96
2024-01-16T09:22:36.369Z,66.37
2024-01-16T09:25:02.712Z,64.65
2024-01-16T09:27:29.088Z,63.33
2024-01-16T09:29:55.533Z,65.02
2024-01-16T09:32:22.095Z,63.19
2024-01-16T09:34:48.844Z,64.12
2024-01-16T09:37:15.696Z,60.77
2024-01-16T09:39:42.527Z,62.30
2024-01-16T09:42:09.030Z,61.49
2024-01-16T09:44:35.829Z,60.93
2024-01-16T09:47:04.480Z,61.50
2024-01-16T09:49:31.164Z,62.80
2024-01-16T09:52:00.248Z,60.82
2024-01-16T09:54:27.891Z,60.38
2024-01-16T09:56:59.132Z,60.06
2024-01-16T09:59:25.677Z,59.87
2024-01-16T10:01:56.777Z,59.80
2024-01-16T10:04:25.245Z,60.88
2024-01-16T10:06:53.055Z,60.95
2024-01-16T10:09:19.532Z,59.31
2024-01-16T10:11:46.751Z,59.05
2024-01-16T10:14:13.287Z,58.17
2024-01-16T10:16:59.614Z,58.65
2024-01-16T10:19:42.228Z,57.16
2024-01-16T10:22:13.217Z,58.24
2024-01-16T10:24:41.602Z,60.75
2024-01-16T10:27:07.965Z,59.29
2024-01-16T10:29:43.435Z,62.35
2024-01-16T10:32:28.510Z,59.80
2024-01-16T10:35:12.569Z,59.48
2024-01-16T10:37:50.175Z,60.78
2024-01-16T10:40:19.996Z,59.25
2024-01-16T10:42:57.601Z,57.53
2024-01-16T10:45:28.188Z,59.54
2024-01-16T10:48:06.401Z,60.31
2024-01-16T10:50:34.173Z,58.51
2024-01-16T10:53:04.749Z,56.80
2024-01-16T10:55:32.076Z,57.84
2024-01-16T10:58:01.540Z,57.99
2024-01-16T11:00:28.286Z,57.48
2024-01-16T11:03:07.131Z,57.86
2024-01-16T11:05:35.186Z,58.76
2024-01-16T11:08:07.777Z,57.94
2024-01-16T11:10:35.153Z,58.85
2024-01-16T11:13:03.588Z,57.91
2024-01-16T11:15:30.172Z,58.25
2024-01-16T11:17:57.182Z,57.55
2024-01-16T11:20:38.801Z,55.98
2024-01-16T11:23:13.955Z,55.60
2024-01-16T11:25:40.614Z,57.11
2024-01-16T11:28:12.909Z,56.23
2024-01-16T11:30:40.232Z,54.70
2024-01-16T11:33:06.939Z,54.06
2024-01-16T11:35:35.123Z,56.10
2024-01-16T11:38:10.902Z,55.04
2024-01-16T11:40:38.181Z,54.97
2024-01-16T11:43:32.664Z,53.76
2024-01-16T11:45:59.939Z,55.91
2024-01-16T11:48:26.921Z,56.49
2024-01-16T11:50:54.610Z,53.99
2024-01-16T11:53:40.337Z,55.48
2024-01-16T11:56:47.587Z,54.27
2024-01-16T11:59:52.172Z,53.89
2024-01-16T12:02:22.686Z,52.53
2024-01-16T12:04:57.550Z,52.75
2024-01-16T12:07:24.420Z,52.86
2024-01-16T12:09:50.834Z,53.49
2024-01-16T12:12:19.457Z,53.08
2024-01-16T12:14:55.859Z,51.27
2024-01-16T12:17:22.479Z,52.07
2024-01-16T12:19:50.697Z,52.04
2024-01-16T12:22:19.432Z,51.21
2024-01-16T12:24:46.522Z,50.62
2024-01-16T12:27:14.221Z,50.11
2024-01-16T12:29:42.352Z,50.21
2024-01-16T12:32:13.056Z,49.95
2024-01-16T12:34:50.430Z,51.07
2024-01-16T12:37:18.003Z,50.67
2024-01-16T12:39:44.557Z,50.83
2024-01-16T12:42:13.676Z,52.73
2024-01-16T12:44:40.438Z,52.06
2024-01-16T12:47:06.952Z,50.73
2024-01-16T12:49:34.367Z,50.58
2024-01-16T12:52:19.295Z,50.34
2024-01-16T12:54:46.267Z,51.16
2024-01-16T12:57:18.036Z,50.87
2024-01-16T12:59:44.453Z,51.32
2024-01-16T13:02:14.284Z,50.27
2024-01-16T13:04:40.781Z,49.94
2024-01-16T13:07:07.401Z,50.25
2024-01-16T13:09:33.922Z,51.37
2024-01-16T13:12:01.383Z,49.64
2024-01-16T13:14:27.821Z,51.47
2024-01-16T13:16:57.614Z,50.78
2024-01-16T13:19:25.256Z,50.34
2024-01-16T13:21:51.987Z,51.04
2024-01-16T13:24:22.221Z,50.75
2024-01-16T13:26:48.627Z,49.19
2024-01-16T13:29:16.591Z,49.25
2024-01-16T13:31:44.529Z,49.44
2024-01-16T13:34:11.047Z,51.09
2024-01-16T13:39:13.616Z,50.86
2024-01-16T13:41:41.453Z,52.12
2024-01-16T13:44:07.892Z,50.68
2024-01-16T13:46:49.268Z,49.96
2024-01-16T13:49:21.555Z,52.20
2024-01-16T13:51:48.179Z,51.37
2024-01-16T13:54:14.511Z,50.20
2024-01-16T13:56:57.399Z,50.71
2024-01-16T13:59:27.301Z,51.76
2024-01-16T14:01:53.668Z,51.28
2024-01-16T14:04:20.019Z,51.76
2024-01-16T14:07:02.491Z,51.35
2024-01-16T14:09:36.986Z,50.43
2024-01-16T14:12:03.633Z,50.90
2024-01-16T14:14:30.039Z,50.93
2024-01-16T14:17:01.636Z,51.22
2024-01-16T14:19:31.383Z,52.11
2024-01-16T14:21:58.059Z,51.93
2024-01-16T14:24:24.450Z,50.95
2024-01-16T14:26:50.885Z,51.50
2024-01-16T14:29:17.392Z,50.27
2024-01-16T14:31:44.395Z,50.77
2024-01-16T14:34:14.343Z,50.98
2024-01-16T14:36:43.341Z,50.85
2024-01-16T14:39:14.729Z,51.95
2024-01-16T14:41:42.425Z,51.78
2024-01-16T14:44:10.483Z,52.62
2024-01-16T14:46:37.464Z,52.19
2024-01-16T14:49:04.548Z,51.07
2024-01-16T14:51:31.106Z,49.03
2024-01-16T14:53:57.629Z,49.28
2024-01-16T14:56:24.210Z,49.53
2024-01-16T14:58:50.582Z,50.18
2024-01-16T15:01:19.438Z,47.59
2024-01-16T15:03:46.188Z,48.53
2024-01-16T15:06:14.106Z,49.18
2024-01-16T15:08:40.711Z,49.85
2024-01-16T15:11:08.094Z,49.83
2024-01-16T15:13:36.338Z,49.29
2024-01-16T15:16:02.771Z,50.63
2024-01-16T15:18:29.498Z,50.86
2024-01-16T15:20:56.816Z,50.65
2024-01-16T15:23:24.254Z,50.25
2024-01-16T15:25:50.798Z,51.37
2024-01-16T15:28:17.170Z,50.46
2024-01-16T15:30:44.148Z,50.75
2024-01-16T15:33:10.745Z,53.29
2024-01-16T15:35:37.282Z,53.76
2024-01-16T15:38:04.021Z,54.18
2024-01-16T15:40:31.949Z,54.10
2024-01-16T15:42:58.462Z,54.79
2024-01-16T15:45:27.447Z,56.51
2024-01-16T15:47:54.327Z,56.97
2024-01-16T15:50:21.330Z,54.40
2024-01-16T15:52:47.914Z,55.99
2024-01-16T15:55:14.651Z,56.99
2024-01-16T15:57:41.070Z,56.96
2024-01-16T16:00:10.380Z,58.34
2024-01-16T16:02:38.041Z,59.17
2024-01-16T16:05:05.045Z,59.10
2024-01-16T16:07:31.449Z,59.64
2024-01-16T16:09:57.848Z,59.57
2024-01-16T16:12:24.376Z,58.71
2024-01-16T16:14:50.840Z,59.85
2024-01-16T16:17:17.475Z,60.64
2024-01-16T16:19:43.983Z,61.58
2024-01-16T16:22:10.389Z,62.00
2024-01-16T16:24:36.856Z,62.13
2024-01-16T16:27:05.788Z,62.28
2024-01-16T16:29:32.296Z,62.31
2024-01-16T16:31:59.272Z,62.84
2024-01-16T16:34:25.757Z,63.44
2024-01-16T16:36:52.676Z,63.52
2024-01-16T16:39:19.216Z,63.83
2024-01-16T16:41:45.757Z,64.19
2024-01-16T16:44:12.179Z,64.74
2024-01-16T16:46:38.619Z,64.24
2024-01-16T16:49:05.390Z,64.77
2024-01-16T16:51:32.586Z,65.58
2024-01-16T16:53:58.957Z,63.77
2024-01-16T16:56:25.686Z,65.49
2024-01-16T16:58:52.852Z,66.31
2024-01-16T17:01:20.570Z,66.81
2024-01-16T17:03:50.508Z,66.15
2024-01-16T17:06:17.052Z,65.49
2024-01-16T17:08:46.787Z,65.57
2024-01-16T17:11:14.017Z,66.30
2024-01-16T17:13:42.315Z,67.29
2024-01-16T17:16:10.036Z,67.36
2024-01-16T17:18:39.114Z,67.20
2024-01-16T17:21:07.018Z,68.28
2024-01-16T17:23:33.958Z,68.07
2024-01-16T17:26:01.025Z,68.18
2024-01-16T17:28:29.344Z,68.32
2024-01-16T17:30:57.148Z,68.44
2024-01-16T17:33:23.853Z,68.25
2024-01-16T17:35:50.920Z,68.52
2024-01-16T17:38:21.603Z,67.72
2024-01-16T17:40:49.885Z,68.33
2024-01-16T17:43:16.714Z,68.96
2024-01-16T17:45:45.037Z,68.75
2024-01-16T17:48:11.984Z,69.00
2024-01-16T17:50:38.453Z,69.21
2024-01-16T17:53:08.034Z,70.23
2024-01-16T17:55:35.049Z,70.15
2024-01-16T17:58:02.482Z,68.43
2024-01-16T18:00:30.395Z,69.18
2024-01-16T18:02:59.529Z,68.61
2024-01-16T18:05:30.804Z,69.65
2024-01-16T18:07:58.459Z,68.94
2024-01-16T18:10:25.133Z,69.26
2024-01-16T18:12:51.944Z,68.87
2024-01-16T18:15:18.970Z,69.73
2024-01-16T18:17:47.037Z,69.86
2024-01-16T18:20:19.969Z,68.67
2024-01-16T18:22:53.478Z,69.87
2024-01-16T18:25:19.869Z,69.87
2024-01-16T18:27:46.281Z,70.16
2024-01-16T18:30:16.829Z,69.33
2024-01-16T18:32:44.304Z,69.30
2024-01-16T18:35:13.498Z,69.33
2024-01-16T18:37:41.040Z,70.64
2024-01-16T18:40:10.070Z,71.49
2024-01-16T18:42:40.480Z,70.96
2024-01-16T18:45:09.395Z,72.30
2024-01-16T18:47:38.884Z,71.78
2024-01-16T18:50:06.494Z,71.98
2024-01-16T18:52:32.954Z,72.06
2024-01-16T18:54:59.349Z,73.46
2024-01-16T18:57:25.851Z,72.96
2024-01-16T18:59:52.210Z,72.63
2024-01-16T19:02:22.150Z,72.78
2024-01-16T19:04:49.671Z,72.07
2024-01-16T19:07:18.599Z,72.85
2024-01-16T19:09:45.548Z,72.65
2024-01-16T19:12:15.263Z,72.84
2024-01-16T19:14:45.958Z,73.05
2024-01-16T19:17:15.343Z,73.07
2024-01-16T19:19:41.933Z,71.95
2024-01-16T19:22:10.140Z,71.57
2024-01-16T19:24:37.279Z,72.79
2024-01-16T19:27:04.090Z,73.41
2024-01-16T19:29:31.361Z,74.59
2024-01-16T19:31:57.998Z,74.39
2024-01-16T19:34:25.216Z,73.00
2024-01-16T19:36:51.775Z,72.92
2024-01-16T19:39:22.110Z,73.76
2024-01-16T19:41:48.824Z,74.39
2024-01-16T19:44:15.281Z,74.75
2024-01-16T19:46:43.776Z,74.70
2024-01-16T19:49:11.111Z,74.15
2024-01-16T19:51:40.846Z,75.10
2024-01-16T19:54:08.437Z,74.55
2024-01-16T19:56:35.893Z,74.89
2024-01-16T19:59:03.771Z,76.34
2024-01-16T20:01:33.476Z,77.68
2024-01-16T20:04:01.657Z,79.73
2024-01-16T20:06:32.664Z,75.95
2024-01-16T20:08:59.949Z,76.08
2024-01-16T20:11:30.769Z,76.83
2024-01-16T20:13:58.347Z,76.13
2024-01-16T20:16:29.600Z,76.58
2024-01-16T20:18:57.763Z,75.81
2024-01-16T20:21:26.852Z,75.74
2024-01-16T20:23:53.906Z,74.65
2024-01-16T20:26:20.883Z,75.55
2024-01-16T20:28:47.671Z,76.05
2024-01-16T20:31:14.559Z,76.25
2024-01-16T20:33:50.093Z,76.28
2024-01-16T20:36:17.610Z,75.96
2024-01-16T20:38:48.445Z,76.91
2024-01-16T20:41:15.720Z,76.61
2024-01-16T20:43:42.741Z,73.20
2024-01-16T20:46:09.154Z,73.26
2024-01-16T20:48:36.291Z,75.22
2024-01-16T20:51:05.441Z,74.20
2024-01-16T20:53:32.618Z,73.81
2024-01-16T20:55:59.476Z,74.61
2024-01-16T20:58:25.900Z,75.06
2024-01-16T21:00:52.375Z,75.70
2024-01-16T21:03:19.509Z,76.86
2024-01-16T21:05:46.869Z,76.83
2024-01-16T21:08:13.802Z,77.68
2024-01-16T21:10:41.022Z,77.14
2024-01-16T21:13:10.753Z,77.26
2024-01-16T21:15:37.600Z,77.95
2024-01-16T21:18:05.060Z,77.66
2024-01-16T21:20:31.980Z,76.97
2024-01-16T21:22:58.468Z,78.10
2024-01-16T21:25:25.487Z,77.93
2024-01-16T21:27:53.487Z,77.95
2024-01-16T21:30:20.356Z,79.00
2024-01-16T21:32:47.045Z,78.18
2024-01-16T21:35:15.629Z,80.09
2024-01-16T21:37:42.020Z,79.50
2024-01-16T21:40:09.243Z,79.65
2024-01-16T21:42:37.266Z,79.41
2024-01-16T21:45:04.452Z,79.39
2024-01-16T21:47:30.929Z,80.14
2024-01-16T21:49:58.411Z,80.18
2024-01-16T21:52:26.272Z,81.06
2024-01-16T21:54:52.662Z,80.06
2024-01-16T21:57:19.108Z,80.48
2024-01-16T21:59:46.754Z,79.86
2024-01-16T22:02:15.469Z,78.65
2024-01-16T22:04:41.977Z,80.26
2024-01-16T22:07:09.656Z,79.10
2024-01-16T22:09:36.122Z,79.70
2024-01-16T22:12:02.623Z,79.52
2024-01-16T22:14:29.429Z,79.67
2024-01-16T22:16:55.823Z,80.08
2024-01-16T22:19:23.326Z,79.71
2024-01-16T22:21:49.725Z,80.17
2024-01-16T22:24:16.719Z,79.41
2024-01-16T22:26:43.308Z,79.56
2024-01-16T22:29:10.236Z,79.80
2024-01-16T22:31:43.645Z,78.39
2024-01-16T22:34:10.445Z,79.78
2024-01-16T22:36:41.158Z,79.99
2024-01-16T22:39:17.224Z,78.85
2024-01-16T22:41:47.996Z,79.39
2024-01-16T22:44:15.314Z,79.70
2024-01-16T22:46:42.170Z,79.75
2024-01-16T22:49:08.802Z,79.91
2024-01-16T22:51:38.861Z,80.00
2024-01-16T22:54:05.884Z,79.28
2024-01-16T22:56:32.621Z,79.94
2024-01-16T22:59:03.649Z,79.57
2024-01-16T23:01:30.763Z,79.11
2024-01-16T23:03:58.569Z,80.14
2024-01-16T23:06:28.615Z,79.04
2024-01-16T23:09:00.394Z,80.33
2024-01-16T23:11:27.285Z,79.88
2024-01-16T23:13:54.341Z,80.43
2024-01-16T23:16:20.726Z,79.72
2024-01-16T23:18:48.537Z,80.99
2024-01-16T23:21:15.689Z,81.01
2024-01-16T23:23:45.425Z,80.81
2024-01-16T23:26:12.346Z,82.41
2024-01-16T23:28:39.590Z,81.61
2024-01-16T23:31:06.856Z,81.27
2024-01-16T23:33:34.301Z,82.40
2024-01-16T23:36:01.823Z,80.53
2024-01-16T23:38:29.168Z,80.28
2024-01-16T23:40:57.255Z,80.90
2024-01-16T23:43:23.806Z,81.40
2024-01-16T23:45:51.353Z,81.26
2024-01-16T23:48:18.024Z,80.49
2024-01-16T23:50:44.570Z,80.72
2024-01-16T23:53:11.273Z,80.52
2024-01-16T23:55:39.195Z,79.84
2024-01-16T23:58:05.735Z,80.78
